sensor_id;sensor_type;location;lat;lon;timestamp;temperature;humidity
45229;DHT22;30967;51.728;8.682;2022-09-09T00:06:23;19.70;98.80
45229;DHT22;30967;51.728;8.682;2022-09-09T00:09:15;19.70;98.90
45229;DHT22;30967;51.728;8.682;2022-09-09T00:20:33;19.70;99.20
45229;DHT22;30967;51.728;8.682;2022-09-09T00:23:14;19.70;99.20
45229;DHT22;30967;51.728;8.682;2022-09-09T00:25:54;19.70;99.20
45229;DHT22;30967;51.728;8.682;2022-09-09T00:28:26;19.70;99.30
45229;DHT22;30967;51.728;8.682;2022-09-09T00:30:52;19.70;99.40
45229;DHT22;30967;51.728;8.682;2022-09-09T00:33:22;19.70;99.30
45229;DHT22;30967;51.728;8.682;2022-09-09T00:35:51;19.80;99.40
45229;DHT22;30967;51.728;8.682;2022-09-09T00:38:55;19.80;99.50
45229;DHT22;30967;51.728;8.682;2022-09-09T00:41:46;19.70;99.50
45229;DHT22;30967;51.728;8.682;2022-09-09T00:57:51;19.80;99.90
45229;DHT22;30967;51.728;8.682;2022-09-09T01:06:33;19.80;99.90
45229;DHT22;30967;51.728;8.682;2022-09-09T01:11:14;19.70;99.90
45229;DHT22;30967;51.728;8.682;2022-09-09T01:13:41;19.70;99.90
45229;DHT22;30967;51.728;8.682;2022-09-09T01:16:10;19.70;99.90
45229;DHT22;30967;51.728;8.682;2022-09-09T01:18:45;19.70;99.90
45229;DHT22;30967;51.728;8.682;2022-09-09T01:26:59;19.70;99.90
45229;DHT22;30967;51.728;8.682;2022-09-09T01:29:26;19.70;99.90
45229;DHT22;30967;51.728;8.682;2022-09-09T01:34:22;19.70;99.90
45229;DHT22;30967;51.728;8.682;2022-09-09T01:39:23;19.60;99.90
45229;DHT22;30967;51.728;8.682;2022-09-09T01:41:49;19.60;99.90
45229;DHT22;30967;51.728;8.682;2022-09-09T01:44:15;19.60;99.90
45229;DHT22;30967;51.728;8.682;2022-09-09T01:46:41;19.60;99.90
45229;DHT22;30967;51.728;8.682;2022-09-09T01:49:07;19.60;99.90
45229;DHT22;30967;51.728;8.682;2022-09-09T01:51:35;19.60;99.90
45229;DHT22;30967;51.728;8.682;2022-09-09T01:54:02;19.60;99.90
45229;DHT22;30967;51.728;8.682;2022-09-09T01:57:22;19.50;99.90
45229;DHT22;30967;51.728;8.682;2022-09-09T02:00:13;19.50;99.90
45229;DHT22;30967;51.728;8.682;2022-09-09T02:03:01;19.50;99.90
45229;DHT22;30967;51.728;8.682;2022-09-09T02:05:40;19.50;99.90
45229;DHT22;30967;51.728;8.682;2022-09-09T02:08:08;19.40;99.90
45229;DHT22;30967;51.728;8.682;2022-09-09T02:10:56;19.40;99.90
45229;DHT22;30967;51.728;8.682;2022-09-09T02:13:25;19.40;99.90
45229;DHT22;30967;51.728;8.682;2022-09-09T02:21:13;19.40;99.90
45229;DHT22;30967;51.728;8.682;2022-09-09T02:23:42;19.30;99.90
45229;DHT22;30967;51.728;8.682;2022-09-09T02:26:10;19.40;99.90
45229;DHT22;30967;51.728;8.682;2022-09-09T02:28:39;19.40;99.90
45229;DHT22;30967;51.728;8.682;2022-09-09T02:31:06;19.40;99.90
45229;DHT22;30967;51.728;8.682;2022-09-09T02:33:38;19.40;99.90
45229;DHT22;30967;51.728;8.682;2022-09-09T02:36:07;19.40;99.90
45229;DHT22;30967;51.728;8.682;2022-09-09T02:38:35;19.40;99.90
45229;DHT22;30967;51.728;8.682;2022-09-09T02:41:01;19.40;99.90
45229;DHT22;30967;51.728;8.682;2022-09-09T02:43:34;19.30;99.90
45229;DHT22;30967;51.728;8.682;2022-09-09T02:49:04;19.40;99.90
45229;DHT22;30967;51.728;8.682;2022-09-09T02:51:39;19.40;99.90
45229;DHT22;30967;51.728;8.682;2022-09-09T02:54:12;19.30;99.90
45229;DHT22;30967;51.728;8.682;2022-09-09T02:56:49;19.40;99.90
45229;DHT22;30967;51.728;8.682;2022-09-09T02:59:16;19.40;99.90
45229;DHT22;30967;51.728;8.682;2022-09-09T03:01:42;19.40;99.90
45229;DHT22;30967;51.728;8.682;2022-09-09T03:04:09;19.40;99.90
45229;DHT22;30967;51.728;8.682;2022-09-09T03:06:35;19.40;99.90
45229;DHT22;30967;51.728;8.682;2022-09-09T03:09:01;19.40;99.90
45229;DHT22;30967;51.728;8.682;2022-09-09T03:11:28;19.40;99.90
45229;DHT22;30967;51.728;8.682;2022-09-09T03:13:54;19.30;99.90
45229;DHT22;30967;51.728;8.682;2022-09-09T03:16:22;19.30;99.90
45229;DHT22;30967;51.728;8.682;2022-09-09T03:18:47;19.40;99.90
45229;DHT22;30967;51.728;8.682;2022-09-09T03:21:13;19.30;99.90
45229;DHT22;30967;51.728;8.682;2022-09-09T03:23:40;19.30;99.90
45229;DHT22;30967;51.728;8.682;2022-09-09T03:26:05;19.30;99.90
45229;DHT22;30967;51.728;8.682;2022-09-09T03:28:31;19.30;99.90
45229;DHT22;30967;51.728;8.682;2022-09-09T03:31:04;19.20;99.90
45229;DHT22;30967;51.728;8.682;2022-09-09T03:33:30;19.20;99.90
45229;DHT22;30967;51.728;8.682;2022-09-09T03:35:57;19.20;99.90
45229;DHT22;30967;51.728;8.682;2022-09-09T03:38:26;19.20;99.90
45229;DHT22;30967;51.728;8.682;2022-09-09T03:40:53;19.20;99.90
45229;DHT22;30967;51.728;8.682;2022-09-09T03:43:24;19.20;99.90
45229;DHT22;30967;51.728;8.682;2022-09-09T03:45:51;19.20;99.90
45229;DHT22;30967;51.728;8.682;2022-09-09T03:48:17;19.20;99.90
45229;DHT22;30967;51.728;8.682;2022-09-09T03:50:51;19.20;99.90
45229;DHT22;30967;51.728;8.682;2022-09-09T03:53:22;19.20;99.90
45229;DHT22;30967;51.728;8.682;2022-09-09T03:55:49;19.20;99.90
45229;DHT22;30967;51.728;8.682;2022-09-09T03:58:16;19.20;99.90
45229;DHT22;30967;51.728;8.682;2022-09-09T04:00:44;19.20;99.90
45229;DHT22;30967;51.728;8.682;2022-09-09T04:03:17;19.20;99.90
45229;DHT22;30967;51.728;8.682;2022-09-09T04:05:44;19.20;99.90
45229;DHT22;30967;51.728;8.682;2022-09-09T04:08:10;19.20;99.90
45229;DHT22;30967;51.728;8.682;2022-09-09T04:10:36;19.10;99.90
45229;DHT22;30967;51.728;8.682;2022-09-09T04:13:03;19.20;99.90
45229;DHT22;30967;51.728;8.682;2022-09-09T04:15:29;19.20;99.90
45229;DHT22;30967;51.728;8.682;2022-09-09T04:17:55;19.20;99.90
45229;DHT22;30967;51.728;8.682;2022-09-09T04:20:21;19.20;99.90
45229;DHT22;30967;51.728;8.682;2022-09-09T04:22:47;19.20;99.90
45229;DHT22;30967;51.728;8.682;2022-09-09T04:25:13;19.20;99.90
45229;DHT22;30967;51.728;8.682;2022-09-09T04:27:39;19.20;99.90
45229;DHT22;30967;51.728;8.682;2022-09-09T04:30:05;19.20;99.90
45229;DHT22;30967;51.728;8.682;2022-09-09T04:32:36;19.20;99.90
45229;DHT22;30967;51.728;8.682;2022-09-09T04:35:02;19.20;99.90
45229;DHT22;30967;51.728;8.682;2022-09-09T04:37:30;19.20;99.90
45229;DHT22;30967;51.728;8.682;2022-09-09T04:39:56;19.20;99.90
45229;DHT22;30967;51.728;8.682;2022-09-09T04:42:21;19.20;99.90
45229;DHT22;30967;51.728;8.682;2022-09-09T04:44:47;19.20;99.90
45229;DHT22;30967;51.728;8.682;2022-09-09T04:47:15;19.20;99.90
45229;DHT22;30967;51.728;8.682;2022-09-09T04:49:40;19.20;99.90
45229;DHT22;30967;51.728;8.682;2022-09-09T04:52:06;19.20;99.90
45229;DHT22;30967;51.728;8.682;2022-09-09T04:54:32;19.10;99.90
45229;DHT22;30967;51.728;8.682;2022-09-09T04:56:57;19.20;99.90
45229;DHT22;30967;51.728;8.682;2022-09-09T04:59:24;19.20;99.90
45229;DHT22;30967;51.728;8.682;2022-09-09T05:01:49;19.10;99.90
45229;DHT22;30967;51.728;8.682;2022-09-09T05:04:16;19.10;99.90
45229;DHT22;30967;51.728;8.682;2022-09-09T05:06:41;19.10;99.90
45229;DHT22;30967;51.728;8.682;2022-09-09T05:09:09;19.20;99.90
45229;DHT22;30967;51.728;8.682;2022-09-09T05:11:35;19.10;99.90
45229;DHT22;30967;51.728;8.682;2022-09-09T05:14:04;19.10;99.90
45229;DHT22;30967;51.728;8.682;2022-09-09T05:16:30;19.10;99.90
45229;DHT22;30967;51.728;8.682;2022-09-09T05:18:57;19.00;99.90
45229;DHT22;30967;51.728;8.682;2022-09-09T05:21:24;19.10;99.90
45229;DHT22;30967;51.728;8.682;2022-09-09T05:23:51;19.00;99.90
45229;DHT22;30967;51.728;8.682;2022-09-09T05:26:19;19.10;99.90
45229;DHT22;30967;51.728;8.682;2022-09-09T05:28:46;19.00;99.90
45229;DHT22;30967;51.728;8.682;2022-09-09T05:31:13;19.00;99.90
45229;DHT22;30967;51.728;8.682;2022-09-09T05:33:44;19.00;99.90
45229;DHT22;30967;51.728;8.682;2022-09-09T05:36:13;19.00;99.90
45229;DHT22;30967;51.728;8.682;2022-09-09T05:38:40;19.00;99.90
45229;DHT22;30967;51.728;8.682;2022-09-09T05:41:06;19.00;99.90
45229;DHT22;30967;51.728;8.682;2022-09-09T05:43:32;19.00;99.90
45229;DHT22;30967;51.728;8.682;2022-09-09T05:46:00;19.00;99.90
45229;DHT22;30967;51.728;8.682;2022-09-09T05:48:30;19.00;99.90
45229;DHT22;30967;51.728;8.682;2022-09-09T05:50:57;19.00;99.90
45229;DHT22;30967;51.728;8.682;2022-09-09T05:53:23;19.00;99.90
45229;DHT22;30967;51.728;8.682;2022-09-09T05:55:49;19.00;99.90
45229;DHT22;30967;51.728;8.682;2022-09-09T05:58:15;19.00;99.90
45229;DHT22;30967;51.728;8.682;2022-09-09T06:00:43;19.00;99.90
45229;DHT22;30967;51.728;8.682;2022-09-09T06:03:12;19.10;99.90
45229;DHT22;30967;51.728;8.682;2022-09-09T06:05:37;19.10;99.90
45229;DHT22;30967;51.728;8.682;2022-09-09T06:08:04;19.10;99.90
45229;DHT22;30967;51.728;8.682;2022-09-09T06:10:29;19.10;99.90
45229;DHT22;30967;51.728;8.682;2022-09-09T06:12:55;19.10;99.90
45229;DHT22;30967;51.728;8.682;2022-09-09T06:15:21;19.10;99.90
45229;DHT22;30967;51.728;8.682;2022-09-09T06:17:46;19.10;99.90
45229;DHT22;30967;51.728;8.682;2022-09-09T06:20:12;19.10;99.90
45229;DHT22;30967;51.728;8.682;2022-09-09T06:22:40;19.10;99.90
45229;DHT22;30967;51.728;8.682;2022-09-09T06:25:07;19.20;99.90
45229;DHT22;30967;51.728;8.682;2022-09-09T06:27:34;19.10;99.90
45229;DHT22;30967;51.728;8.682;2022-09-09T06:29:59;19.20;99.90
45229;DHT22;30967;51.728;8.682;2022-09-09T06:32:25;19.20;99.90
45229;DHT22;30967;51.728;8.682;2022-09-09T06:34:52;19.20;99.90
45229;DHT22;30967;51.728;8.682;2022-09-09T06:37:17;19.20;99.90
45229;DHT22;30967;51.728;8.682;2022-09-09T06:39:43;19.20;99.90
45229;DHT22;30967;51.728;8.682;2022-09-09T06:42:09;19.20;99.90
45229;DHT22;30967;51.728;8.682;2022-09-09T06:44:34;19.30;99.90
45229;DHT22;30967;51.728;8.682;2022-09-09T06:47:04;19.30;99.90
45229;DHT22;30967;51.728;8.682;2022-09-09T06:49:29;19.30;99.90
45229;DHT22;30967;51.728;8.682;2022-09-09T06:51:55;19.30;99.90
45229;DHT22;30967;51.728;8.682;2022-09-09T06:54:20;19.30;99.90
45229;DHT22;30967;51.728;8.682;2022-09-09T06:56:47;19.30;99.90
45229;DHT22;30967;51.728;8.682;2022-09-09T06:59:13;19.30;99.90
45229;DHT22;30967;51.728;8.682;2022-09-09T07:01:42;19.30;99.90
45229;DHT22;30967;51.728;8.682;2022-09-09T07:04:09;19.30;99.90
45229;DHT22;30967;51.728;8.682;2022-09-09T07:06:45;19.30;99.90
45229;DHT22;30967;51.728;8.682;2022-09-09T07:09:13;19.30;99.90
45229;DHT22;30967;51.728;8.682;2022-09-09T07:11:41;19.30;99.90
45229;DHT22;30967;51.728;8.682;2022-09-09T07:14:07;19.30;99.90
45229;DHT22;30967;51.728;8.682;2022-09-09T07:16:33;19.30;99.90
45229;DHT22;30967;51.728;8.682;2022-09-09T07:19:03;19.30;99.90
45229;DHT22;30967;51.728;8.682;2022-09-09T07:21:30;19.30;99.90
45229;DHT22;30967;51.728;8.682;2022-09-09T07:23:56;19.30;99.90
45229;DHT22;30967;51.728;8.682;2022-09-09T07:26:24;19.30;99.90
45229;DHT22;30967;51.728;8.682;2022-09-09T07:28:50;19.30;99.90
45229;DHT22;30967;51.728;8.682;2022-09-09T07:31:18;19.40;99.90
45229;DHT22;30967;51.728;8.682;2022-09-09T07:33:44;19.40;99.90
45229;DHT22;30967;51.728;8.682;2022-09-09T07:36:17;19.40;99.90
45229;DHT22;30967;51.728;8.682;2022-09-09T07:38:48;19.40;99.90
45229;DHT22;30967;51.728;8.682;2022-09-09T07:41:21;19.50;99.90
45229;DHT22;30967;51.728;8.682;2022-09-09T07:43:48;19.40;99.90
45229;DHT22;30967;51.728;8.682;2022-09-09T07:46:15;19.50;99.90
45229;DHT22;30967;51.728;8.682;2022-09-09T07:48:52;19.50;99.90
45229;DHT22;30967;51.728;8.682;2022-09-09T07:51:27;19.50;99.90
45229;DHT22;30967;51.728;8.682;2022-09-09T07:53:56;19.50;99.90
45229;DHT22;30967;51.728;8.682;2022-09-09T07:56:24;19.50;99.90
45229;DHT22;30967;51.728;8.682;2022-09-09T07:58:52;19.60;99.90
45229;DHT22;30967;51.728;8.682;2022-09-09T08:01:25;19.60;99.90
45229;DHT22;30967;51.728;8.682;2022-09-09T08:04:03;19.60;99.90
45229;DHT22;30967;51.728;8.682;2022-09-09T08:06:31;19.60;99.90
45229;DHT22;30967;51.728;8.682;2022-09-09T08:08:58;19.60;99.90
45229;DHT22;30967;51.728;8.682;2022-09-09T08:11:26;19.50;99.90
45229;DHT22;30967;51.728;8.682;2022-09-09T08:13:52;19.50;99.90
45229;DHT22;30967;51.728;8.682;2022-09-09T08:16:23;19.50;99.90
45229;DHT22;30967;51.728;8.682;2022-09-09T08:18:51;19.50;99.90
45229;DHT22;30967;51.728;8.682;2022-09-09T08:21:19;19.50;99.90
45229;DHT22;30967;51.728;8.682;2022-09-09T08:23:45;19.50;99.90
45229;DHT22;30967;51.728;8.682;2022-09-09T08:26:17;19.50;99.90
45229;DHT22;30967;51.728;8.682;2022-09-09T08:28:44;19.50;99.90
45229;DHT22;30967;51.728;8.682;2022-09-09T08:31:13;19.50;99.90
45229;DHT22;30967;51.728;8.682;2022-09-09T08:33:40;19.50;99.90
45229;DHT22;30967;51.728;8.682;2022-09-09T08:36:10;19.60;99.90
45229;DHT22;30967;51.728;8.682;2022-09-09T08:38:37;19.60;99.90
45229;DHT22;30967;51.728;8.682;2022-09-09T08:47:09;19.70;99.90
45229;DHT22;30967;51.728;8.682;2022-09-09T08:52:16;19.70;99.90
45229;DHT22;30967;51.728;8.682;2022-09-09T08:54:44;19.70;99.90
45229;DHT22;30967;51.728;8.682;2022-09-09T08:57:15;19.70;99.90
45229;DHT22;30967;51.728;8.682;2022-09-09T08:59:44;19.80;99.90
45229;DHT22;30967;51.728;8.682;2022-09-09T09:02:19;19.80;99.90
45229;DHT22;30967;51.728;8.682;2022-09-09T09:05:12;19.80;99.90
45229;DHT22;30967;51.728;8.682;2022-09-09T09:07:59;19.90;99.90
45229;DHT22;30967;51.728;8.682;2022-09-09T09:10:50;19.90;99.90
45229;DHT22;30967;51.728;8.682;2022-09-09T09:15:55;20.00;99.90
45229;DHT22;30967;51.728;8.682;2022-09-09T09:18:23;20.00;99.90
45229;DHT22;30967;51.728;8.682;2022-09-09T09:21:23;20.00;99.90
45229;DHT22;30967;51.728;8.682;2022-09-09T09:23:58;20.10;99.90
45229;DHT22;30967;51.728;8.682;2022-09-09T09:26:33;20.20;99.90
45229;DHT22;30967;51.728;8.682;2022-09-09T09:29:03;20.10;99.90
45229;DHT22;30967;51.728;8.682;2022-09-09T09:31:33;20.20;99.90
45229;DHT22;30967;51.728;8.682;2022-09-09T09:33:59;20.30;99.90
45229;DHT22;30967;51.728;8.682;2022-09-09T09:36:39;20.20;99.90
45229;DHT22;30967;51.728;8.682;2022-09-09T09:39:06;20.30;99.90
45229;DHT22;30967;51.728;8.682;2022-09-09T09:41:38;20.40;99.90
45229;DHT22;30967;51.728;8.682;2022-09-09T09:44:05;20.40;99.90
45229;DHT22;30967;51.728;8.682;2022-09-09T09:46:45;20.50;99.90
45229;DHT22;30967;51.728;8.682;2022-09-09T09:49:11;20.50;99.90
45229;DHT22;30967;51.728;8.682;2022-09-09T09:51:39;20.60;99.50
45229;DHT22;30967;51.728;8.682;2022-09-09T09:54:27;20.60;99.00
45229;DHT22;30967;51.728;8.682;2022-09-09T09:56:54;20.70;99.60
45229;DHT22;30967;51.728;8.682;2022-09-09T10:01:54;20.70;98.80
45229;DHT22;30967;51.728;8.682;2022-09-09T10:04:22;20.70;98.60
45229;DHT22;30967;51.728;8.682;2022-09-09T10:06:49;20.70;98.60
45229;DHT22;30967;51.728;8.682;2022-09-09T10:09:33;20.80;98.30
45229;DHT22;30967;51.728;8.682;2022-09-09T10:12:05;20.80;98.10
45229;DHT22;30967;51.728;8.682;2022-09-09T10:20:24;21.00;96.70
45229;DHT22;30967;51.728;8.682;2022-09-09T10:23:18;21.00;96.80
45229;DHT22;30967;51.728;8.682;2022-09-09T10:34:56;21.40;97.00
45229;DHT22;30967;51.728;8.682;2022-09-09T10:37:41;21.40;96.40
45229;DHT22;30967;51.728;8.682;2022-09-09T10:40:33;21.50;96.00
45229;DHT22;30967;51.728;8.682;2022-09-09T10:46:05;21.60;95.30
45229;DHT22;30967;51.728;8.682;2022-09-09T10:49:07;21.60;96.00
45229;DHT22;30967;51.728;8.682;2022-09-09T10:54:14;21.80;95.40
45229;DHT22;30967;51.728;8.682;2022-09-09T10:56:44;21.80;94.80
45229;DHT22;30967;51.728;8.682;2022-09-09T10:59:17;21.80;94.70
45229;DHT22;30967;51.728;8.682;2022-09-09T11:02:18;21.80;94.50
45229;DHT22;30967;51.728;8.682;2022-09-09T11:04:55;21.80;93.90
45229;DHT22;30967;51.728;8.682;2022-09-09T11:07:37;21.90;94.50
45229;DHT22;30967;51.728;8.682;2022-09-09T11:10:13;21.90;94.20
45229;DHT22;30967;51.728;8.682;2022-09-09T11:12:43;21.80;94.10
45229;DHT22;30967;51.728;8.682;2022-09-09T11:15:31;21.90;94.20
45229;DHT22;30967;51.728;8.682;2022-09-09T11:17:59;21.90;93.60
45229;DHT22;30967;51.728;8.682;2022-09-09T11:20:28;21.90;93.50
45229;DHT22;30967;51.728;8.682;2022-09-09T11:23:03;22.00;93.60
45229;DHT22;30967;51.728;8.682;2022-09-09T11:25:36;22.00;93.10
45229;DHT22;30967;51.728;8.682;2022-09-09T11:44:39;22.50;93.00
45229;DHT22;30967;51.728;8.682;2022-09-09T11:47:26;22.50;93.10
45229;DHT22;30967;51.728;8.682;2022-09-09T11:50:06;22.60;92.20
45229;DHT22;30967;51.728;8.682;2022-09-09T11:52:48;22.60;92.10
45229;DHT22;30967;51.728;8.682;2022-09-09T11:55:32;22.60;92.60
45229;DHT22;30967;51.728;8.682;2022-09-09T11:58:03;22.70;92.70
45229;DHT22;30967;51.728;8.682;2022-09-09T12:03:00;22.80;92.50
45229;DHT22;30967;51.728;8.682;2022-09-09T12:05:56;22.80;92.90
45229;DHT22;30967;51.728;8.682;2022-09-09T12:08:27;22.80;92.40
45229;DHT22;30967;51.728;8.682;2022-09-09T12:10:58;22.90;92.00
45229;DHT22;30967;51.728;8.682;2022-09-09T12:13:26;22.80;92.20
45229;DHT22;30967;51.728;8.682;2022-09-09T12:15:55;22.90;91.90
45229;DHT22;30967;51.728;8.682;2022-09-09T12:18:24;22.90;91.40
45229;DHT22;30967;51.728;8.682;2022-09-09T12:21:34;23.00;90.50
45229;DHT22;30967;51.728;8.682;2022-09-09T12:24:09;23.00;89.70
45229;DHT22;30967;51.728;8.682;2022-09-09T12:27:13;23.00;90.40
45229;DHT22;30967;51.728;8.682;2022-09-09T12:30:08;23.10;91.40
45229;DHT22;30967;51.728;8.682;2022-09-09T12:32:35;23.10;90.20
45229;DHT22;30967;51.728;8.682;2022-09-09T12:35:20;23.20;89.70
45229;DHT22;30967;51.728;8.682;2022-09-09T12:38:00;23.20;89.80
45229;DHT22;30967;51.728;8.682;2022-09-09T12:40:35;23.20;90.10
45229;DHT22;30967;51.728;8.682;2022-09-09T12:43:14;23.20;90.40
45229;DHT22;30967;51.728;8.682;2022-09-09T12:45:42;23.30;90.20
45229;DHT22;30967;51.728;8.682;2022-09-09T12:48:09;23.30;88.90
45229;DHT22;30967;51.728;8.682;2022-09-09T12:50:43;23.30;88.90
45229;DHT22;30967;51.728;8.682;2022-09-09T12:53:15;23.30;87.40
45229;DHT22;30967;51.728;8.682;2022-09-09T12:55:50;23.30;87.50
45229;DHT22;30967;51.728;8.682;2022-09-09T12:58:18;23.30;87.70
45229;DHT22;30967;51.728;8.682;2022-09-09T13:00:52;23.20;87.50
45229;DHT22;30967;51.728;8.682;2022-09-09T13:03:19;23.20;87.70
45229;DHT22;30967;51.728;8.682;2022-09-09T13:05:46;23.20;89.20
45229;DHT22;30967;51.728;8.682;2022-09-09T13:08:14;23.30;89.50
45229;DHT22;30967;51.728;8.682;2022-09-09T13:10:58;23.30;88.50
45229;DHT22;30967;51.728;8.682;2022-09-09T13:13:52;23.20;87.90
45229;DHT22;30967;51.728;8.682;2022-09-09T13:18:57;23.20;90.00
45229;DHT22;30967;51.728;8.682;2022-09-09T13:21:38;23.20;88.90
45229;DHT22;30967;51.728;8.682;2022-09-09T13:24:29;23.30;89.30
45229;DHT22;30967;51.728;8.682;2022-09-09T13:26:57;23.40;88.40
45229;DHT22;30967;51.728;8.682;2022-09-09T13:29:23;23.40;87.80
45229;DHT22;30967;51.728;8.682;2022-09-09T13:31:49;23.50;88.00
45229;DHT22;30967;51.728;8.682;2022-09-09T13:34:32;23.50;87.80
45229;DHT22;30967;51.728;8.682;2022-09-09T13:37:03;23.70;87.40
45229;DHT22;30967;51.728;8.682;2022-09-09T13:39:33;23.70;88.20
45229;DHT22;30967;51.728;8.682;2022-09-09T13:42:00;23.90;87.10
45229;DHT22;30967;51.728;8.682;2022-09-09T13:44:36;24.00;85.90
45229;DHT22;30967;51.728;8.682;2022-09-09T13:49:30;24.20;81.70
45229;DHT22;30967;51.728;8.682;2022-09-09T13:52:11;24.20;82.00
45229;DHT22;30967;51.728;8.682;2022-09-09T13:54:39;24.30;81.90
45229;DHT22;30967;51.728;8.682;2022-09-09T13:57:05;24.40;80.90
45229;DHT22;30967;51.728;8.682;2022-09-09T13:59:31;24.50;80.10
45229;DHT22;30967;51.728;8.682;2022-09-09T14:01:57;24.60;79.40
45229;DHT22;30967;51.728;8.682;2022-09-09T14:04:23;24.60;79.40
45229;DHT22;30967;51.728;8.682;2022-09-09T14:06:49;24.60;80.60
45229;DHT22;30967;51.728;8.682;2022-09-09T14:09:17;24.70;81.00
45229;DHT22;30967;51.728;8.682;2022-09-09T14:11:44;24.70;80.20
45229;DHT22;30967;51.728;8.682;2022-09-09T14:14:10;24.70;79.50
45229;DHT22;30967;51.728;8.682;2022-09-09T14:16:36;24.80;79.00
45229;DHT22;30967;51.728;8.682;2022-09-09T14:19:03;24.80;79.60
45229;DHT22;30967;51.728;8.682;2022-09-09T14:21:29;24.80;78.70
45229;DHT22;30967;51.728;8.682;2022-09-09T14:23:54;24.80;78.10
45229;DHT22;30967;51.728;8.682;2022-09-09T14:26:24;24.80;78.20
45229;DHT22;30967;51.728;8.682;2022-09-09T14:28:50;24.80;79.00
45229;DHT22;30967;51.728;8.682;2022-09-09T14:31:16;24.70;78.50
45229;DHT22;30967;51.728;8.682;2022-09-09T14:33:45;24.70;78.90
45229;DHT22;30967;51.728;8.682;2022-09-09T14:36:11;24.70;78.90
45229;DHT22;30967;51.728;8.682;2022-09-09T14:38:37;24.70;80.40
45229;DHT22;30967;51.728;8.682;2022-09-09T14:41:09;24.80;78.40
45229;DHT22;30967;51.728;8.682;2022-09-09T14:43:35;24.80;78.50
45229;DHT22;30967;51.728;8.682;2022-09-09T14:46:13;24.70;78.40
45229;DHT22;30967;51.728;8.682;2022-09-09T14:48:39;24.80;78.90
45229;DHT22;30967;51.728;8.682;2022-09-09T14:51:11;24.80;77.80
45229;DHT22;30967;51.728;8.682;2022-09-09T14:53:39;24.80;78.30
45229;DHT22;30967;51.728;8.682;2022-09-09T14:56:12;24.80;79.10
45229;DHT22;30967;51.728;8.682;2022-09-09T14:58:38;24.80;79.30
45229;DHT22;30967;51.728;8.682;2022-09-09T15:01:16;24.80;79.10
45229;DHT22;30967;51.728;8.682;2022-09-09T15:03:48;24.80;78.40
45229;DHT22;30967;51.728;8.682;2022-09-09T15:06:14;24.80;78.90
45229;DHT22;30967;51.728;8.682;2022-09-09T15:08:41;24.80;78.10
45229;DHT22;30967;51.728;8.682;2022-09-09T15:11:08;24.90;78.70
45229;DHT22;30967;51.728;8.682;2022-09-09T15:13:34;24.80;79.30
45229;DHT22;30967;51.728;8.682;2022-09-09T15:16:15;24.80;79.10
45229;DHT22;30967;51.728;8.682;2022-09-09T15:18:41;24.80;79.30
45229;DHT22;30967;51.728;8.682;2022-09-09T15:21:31;24.80;79.30
45229;DHT22;30967;51.728;8.682;2022-09-09T15:23:58;24.80;78.70
45229;DHT22;30967;51.728;8.682;2022-09-09T15:26:24;24.70;79.60
45229;DHT22;30967;51.728;8.682;2022-09-09T15:28:50;24.70;80.20
45229;DHT22;30967;51.728;8.682;2022-09-09T15:31:21;24.70;78.70
45229;DHT22;30967;51.728;8.682;2022-09-09T15:33:48;24.60;77.70
45229;DHT22;30967;51.728;8.682;2022-09-09T15:36:18;24.60;78.30
45229;DHT22;30967;51.728;8.682;2022-09-09T15:38:44;24.60;78.50
45229;DHT22;30967;51.728;8.682;2022-09-09T15:41:11;24.50;77.70
45229;DHT22;30967;51.728;8.682;2022-09-09T15:43:37;24.50;78.00
45229;DHT22;30967;51.728;8.682;2022-09-09T15:46:24;24.50;78.40
45229;DHT22;30967;51.728;8.682;2022-09-09T15:48:53;24.40;78.60
45229;DHT22;30967;51.728;8.682;2022-09-09T15:51:19;24.40;78.90
45229;DHT22;30967;51.728;8.682;2022-09-09T15:53:45;24.30;79.00
45229;DHT22;30967;51.728;8.682;2022-09-09T15:56:11;24.30;79.00
45229;DHT22;30967;51.728;8.682;2022-09-09T15:58:36;24.20;79.20
45229;DHT22;30967;51.728;8.682;2022-09-09T16:01:03;24.20;79.20
45229;DHT22;30967;51.728;8.682;2022-09-09T16:03:33;24.20;79.80
45229;DHT22;30967;51.728;8.682;2022-09-09T16:05:59;24.20;80.60
45229;DHT22;30967;51.728;8.682;2022-09-09T16:08:30;24.10;80.00
45229;DHT22;30967;51.728;8.682;2022-09-09T16:10:56;24.00;79.90
45229;DHT22;30967;51.728;8.682;2022-09-09T16:13:22;24.00;80.10
45229;DHT22;30967;51.728;8.682;2022-09-09T16:15:54;24.00;80.50
45229;DHT22;30967;51.728;8.682;2022-09-09T16:18:20;24.00;80.40
45229;DHT22;30967;51.728;8.682;2022-09-09T16:20:54;24.00;81.40
45229;DHT22;30967;51.728;8.682;2022-09-09T16:23:20;24.00;82.20
45229;DHT22;30967;51.728;8.682;2022-09-09T16:25:53;24.00;83.00
45229;DHT22;30967;51.728;8.682;2022-09-09T16:28:19;24.00;83.80
45229;DHT22;30967;51.728;8.682;2022-09-09T16:30:45;24.00;84.20
45229;DHT22;30967;51.728;8.682;2022-09-09T16:33:11;24.00;84.60
45229;DHT22;30967;51.728;8.682;2022-09-09T16:35:36;24.00;85.20
45229;DHT22;30967;51.728;8.682;2022-09-09T16:38:04;24.00;85.60
45229;DHT22;30967;51.728;8.682;2022-09-09T16:40:29;24.00;86.60
45229;DHT22;30967;51.728;8.682;2022-09-09T16:42:55;23.90;86.70
45229;DHT22;30967;51.728;8.682;2022-09-09T16:45:21;23.90;86.60
45229;DHT22;30967;51.728;8.682;2022-09-09T16:47:47;23.80;86.70
45229;DHT22;30967;51.728;8.682;2022-09-09T16:50:14;23.80;88.00
45229;DHT22;30967;51.728;8.682;2022-09-09T16:52:39;23.80;88.70
45229;DHT22;30967;51.728;8.682;2022-09-09T16:55:05;23.80;89.50
45229;DHT22;30967;51.728;8.682;2022-09-09T16:57:31;23.70;90.00
45229;DHT22;30967;51.728;8.682;2022-09-09T16:59:57;23.70;90.20
45229;DHT22;30967;51.728;8.682;2022-09-09T17:02:25;23.60;90.30
45229;DHT22;30967;51.728;8.682;2022-09-09T17:04:50;23.60;90.50
45229;DHT22;30967;51.728;8.682;2022-09-09T17:07:16;23.60;90.70
45229;DHT22;30967;51.728;8.682;2022-09-09T17:09:43;23.50;90.90
45229;DHT22;30967;51.728;8.682;2022-09-09T17:12:10;23.50;91.00
45229;DHT22;30967;51.728;8.682;2022-09-09T17:14:37;23.40;91.30
45229;DHT22;30967;51.728;8.682;2022-09-09T17:17:03;23.30;91.30
45229;DHT22;30967;51.728;8.682;2022-09-09T17:19:30;23.30;91.40
45229;DHT22;30967;51.728;8.682;2022-09-09T17:21:56;23.30;91.80
45229;DHT22;30967;51.728;8.682;2022-09-09T17:24:26;23.20;92.10
45229;DHT22;30967;51.728;8.682;2022-09-09T17:26:52;23.20;92.30
45229;DHT22;30967;51.728;8.682;2022-09-09T17:29:18;23.10;92.70
45229;DHT22;30967;51.728;8.682;2022-09-09T17:31:43;23.00;92.70
45229;DHT22;30967;51.728;8.682;2022-09-09T17:34:09;23.00;92.80
45229;DHT22;30967;51.728;8.682;2022-09-09T17:36:35;23.00;93.50
45229;DHT22;30967;51.728;8.682;2022-09-09T17:39:03;22.90;93.30
45229;DHT22;30967;51.728;8.682;2022-09-09T17:41:31;22.90;93.60
45229;DHT22;30967;51.728;8.682;2022-09-09T17:43:57;22.80;94.20